Impacts TAF Board
For situational awareness. Not to be used for flight planning purposes.
IDs:

KAMA - Amarillo Intl Arpt, TX, US

Issued at 1724 UTC 08 Aug 2020
Updated at 2112 UTC 08 Aug 2020
Potential Impact None Slight Moderate High
Time2053Z 08/22Z 08/23Z 09/00Z 09/01Z 09/02Z 09/03Z 09/04Z 09/05Z 09/06Z 09/07Z 09/08Z 09/09Z 09/10Z>>
Type OBS PRVL PRVL PRVL PRVL PRVL PRVL PRVL PRVL PRVL PRVL PRVL PRVL PRVL
VIS 10 >6 >6 >6 >6 >6 >6 >6 >6 >6 >6 >6 >6 >6
CIG -- -- -- -- -- -- -- -- 250 250 250 250 250 250
Cover FEW SKC SKC SKC SKC SKC SKC SKC BKN BKN BKN BKN BKN BKN
FltCat VFR VFR VFR VFR VFR VFR VFR VFR VFR VFR VFR VFR VFR VFR
WX -- -- -- -- -- -- -- -- -- -- -- -- -- --
WDir 180 210 210 210 210 210 210 210 190 190 190 190 190 190
WSpd 23 18 18 18 18 18 18 18 12 12 12 12 12 12
WGst 29 -- -- -- -- -- -- -- 21 21 21 21 21 21
Raw TAF
KAMA 081724Z 0818/0918 21018KT P6SM SKC
  FM090500 19012G21KT P6SM BKN250


Raw METAR
KAMA 082053Z 18023G29KT 10SM FEW090 37/13 A3004 RMK AO2 PK WND 19029/2052 SLP106 T03670133 56012
KAMA 081953Z AUTO 19018G22KT 10SM CLR 37/13 A3006 RMK AO2 SLP111 T03670133
KAMA 081853Z 20016G19KT 10SM CLR 36/13 A3006 RMK AO2 SLP112 T03610133

METAR Board
Radar Display
Forecast Discussion
For situational awareness. Not to be used for flight planning purposes.